createdAt,value
2023-02-24T00:01:51.327Z,9.31
2023-02-24T00:05:05.929Z,9.33
2023-02-24T00:08:20.959Z,9.35
2023-02-24T00:11:29.640Z,9.33
2023-02-24T00:14:40.969Z,9.36
2023-02-24T00:17:49.652Z,9.37
2023-02-24T00:20:57.953Z,9.35
2023-02-24T00:24:14.028Z,9.27
2023-02-24T00:27:23.003Z,9.27
2023-02-24T00:30:39.054Z,9.32
2023-02-24T00:33:43.342Z,9.31
2023-02-24T00:36:57.991Z,9.09
2023-02-24T00:39:59.989Z,8.99
2023-02-24T00:43:16.073Z,9.07
2023-02-24T00:46:33.021Z,9.10
2023-02-24T00:49:43.333Z,8.99
2023-02-24T00:52:51.552Z,9.01
2023-02-24T00:56:06.975Z,8.98
2023-02-24T00:59:17.701Z,8.97
2023-02-24T01:02:25.971Z,8.96
2023-02-24T01:05:36.701Z,8.91
2023-02-24T01:08:47.028Z,8.97
2023-02-24T01:12:02.054Z,8.76
2023-02-24T01:15:17.990Z,8.69
2023-02-24T01:18:19.979Z,8.76
2023-02-24T01:21:35.989Z,8.73
2023-02-24T01:24:51.015Z,8.70
2023-02-24T01:27:59.986Z,8.81
2023-02-24T01:31:16.108Z,8.86
2023-02-24T01:34:24.999Z,8.82
2023-02-24T01:37:33.793Z,8.78
2023-02-24T01:40:41.992Z,8.69
2023-02-24T01:44:03.199Z,8.71
2023-02-24T01:47:19.002Z,8.72
2023-02-24T01:50:28.688Z,8.80
2023-02-24T01:53:36.969Z,8.81
2023-02-24T01:56:55.991Z,8.74
2023-02-24T02:00:00.125Z,8.76
2023-02-24T02:03:20.113Z,8.69
2023-02-24T02:06:21.966Z,8.72
2023-02-24T02:09:37.998Z,8.75
2023-02-24T02:12:43.271Z,8.80
2023-02-24T02:16:23.042Z,8.80
2023-02-24T02:20:01.614Z,8.79
2023-02-24T02:23:40.072Z,8.75
2023-02-24T02:27:15.027Z,8.77
2023-02-24T02:30:57.061Z,8.80
2023-02-24T02:34:14.649Z,8.72
2023-02-24T02:37:55.062Z,8.80
2023-02-24T02:41:22.607Z,8.82
2023-02-24T02:44:45.060Z,8.83
2023-02-24T02:48:14.009Z,8.78
2023-02-24T02:51:28.061Z,8.68
2023-02-24T02:54:46.590Z,8.70
2023-02-24T02:57:57.258Z,8.69
2023-02-24T03:01:06.595Z,8.70
2023-02-24T03:04:19.127Z,8.74
2023-02-24T03:07:33.633Z,8.73
2023-02-24T03:10:52.042Z,8.69
2023-02-24T03:13:56.882Z,8.65
2023-02-24T03:17:18.044Z,8.71
2023-02-24T03:20:42.054Z,8.70
2023-02-24T03:23:49.324Z,8.56
2023-02-24T03:27:18.115Z,8.51
2023-02-24T03:30:33.134Z,8.50
2023-02-24T03:33:49.053Z,8.53
2023-02-24T03:37:04.089Z,8.59
2023-02-24T03:40:11.049Z,8.65
2023-02-24T03:43:36.085Z,8.61
2023-02-24T03:46:39.402Z,8.59
2023-02-24T03:50:01.062Z,8.49
2023-02-24T03:53:32.402Z,8.52
2023-02-24T03:57:13.051Z,8.50
2023-02-24T04:00:37.083Z,8.55
2023-02-24T04:03:52.256Z,8.61
2023-02-24T04:07:16.400Z,8.63
2023-02-24T04:10:41.076Z,8.60
2023-02-24T04:13:49.673Z,8.47
2023-02-24T04:17:15.271Z,8.49
2023-02-24T04:20:34.143Z,8.58
2023-02-24T04:23:42.078Z,8.49
2023-02-24T04:27:01.058Z,8.58
2023-02-24T04:30:10.116Z,8.43
2023-02-24T04:33:19.721Z,8.36
2023-02-24T04:36:34.124Z,8.31
2023-02-24T04:39:36.493Z,8.32
2023-02-24T04:42:52.194Z,8.40
2023-02-24T04:46:01.158Z,8.43
2023-02-24T04:49:10.249Z,8.34
2023-02-24T04:52:25.114Z,8.36
2023-02-24T04:55:36.094Z,8.29
2023-02-24T04:58:44.713Z,8.37
2023-02-24T05:01:59.106Z,8.34
2023-02-24T05:05:07.290Z,8.42
2023-02-24T05:08:15.817Z,8.41
2023-02-24T05:11:25.173Z,8.40
2023-02-24T05:14:33.882Z,8.36
2023-02-24T05:17:49.136Z,8.36
2023-02-24T05:20:54.303Z,8.33
2023-02-24T05:24:10.147Z,8.37
2023-02-24T05:27:18.175Z,8.32
2023-02-24T05:30:33.157Z,8.38
2023-02-24T05:33:37.690Z,8.38
2023-02-24T05:36:52.127Z,8.32
2023-02-24T05:39:56.262Z,8.34
2023-02-24T05:43:11.145Z,8.25
2023-02-24T05:46:36.148Z,8.33
2023-02-24T05:49:51.093Z,8.29
2023-02-24T05:53:00.180Z,8.37
2023-02-24T05:56:10.119Z,8.36
2023-02-24T05:59:18.921Z,8.36
2023-02-24T06:02:34.122Z,8.31
2023-02-24T06:05:43.194Z,8.29
2023-02-24T06:08:51.722Z,8.13
2023-02-24T06:12:00.216Z,8.05
2023-02-24T06:15:16.197Z,8.12
2023-02-24T06:18:24.989Z,8.21
2023-02-24T06:21:33.166Z,8.34
2023-02-24T06:24:42.146Z,8.32
2023-02-24T06:27:50.125Z,8.40
2023-02-24T06:31:02.733Z,8.45
2023-02-24T06:34:19.186Z,8.38
2023-02-24T06:37:21.485Z,8.41
2023-02-24T06:40:36.150Z,8.41
2023-02-24T06:43:47.150Z,8.39
2023-02-24T06:47:10.226Z,8.45
2023-02-24T06:50:27.117Z,8.44
2023-02-24T06:53:35.166Z,8.41
2023-02-24T06:56:43.788Z,8.31
2023-02-24T06:59:55.145Z,8.29
2023-02-24T07:03:17.161Z,8.37
2023-02-24T07:06:26.149Z,8.37
2023-02-24T07:09:34.783Z,8.16
2023-02-24T07:12:50.174Z,8.29
2023-02-24T07:15:59.135Z,8.21
2023-02-24T07:19:10.863Z,8.37
2023-02-24T07:22:19.174Z,8.31
2023-02-24T07:25:27.770Z,8.29
2023-02-24T07:28:43.142Z,8.39
2023-02-24T07:31:59.349Z,8.55
2023-02-24T07:35:08.063Z,8.74
2023-02-24T07:38:16.160Z,8.69
2023-02-24T07:41:33.193Z,8.96
2023-02-24T07:44:41.744Z,8.97
2023-02-24T07:47:56.189Z,9.05
2023-02-24T07:51:14.851Z,9.22
2023-02-24T07:54:34.330Z,9.30
2023-02-24T07:57:43.477Z,9.12
2023-02-24T08:00:58.360Z,9.10
2023-02-24T08:04:06.466Z,9.33
2023-02-24T08:07:21.169Z,9.17
2023-02-24T08:10:29.197Z,9.07
2023-02-24T08:13:40.849Z,8.93
2023-02-24T08:16:51.158Z,8.70
2023-02-24T08:20:00.225Z,8.86
2023-02-24T08:23:09.237Z,9.10
2023-02-24T08:26:24.209Z,9.23
2023-02-24T08:29:25.985Z,9.17
2023-02-24T08:32:44.211Z,9.22
2023-02-24T08:36:06.220Z,9.22
2023-02-24T08:39:30.289Z,9.24
2023-02-24T08:50:32.234Z,9.13
2023-02-24T09:00:32.354Z,9.37
2023-02-24T09:03:42.830Z,9.50
2023-02-24T09:07:00.245Z,9.50
2023-02-24T09:10:49.197Z,9.76
2023-02-24T09:14:05.870Z,9.89
2023-02-24T09:17:08.506Z,9.88
2023-02-24T09:41:42.219Z,10.47
2023-02-24T09:44:48.817Z,10.47
2023-02-24T09:48:03.369Z,10.70
2023-02-24T09:51:12.488Z,10.95
2023-02-24T09:54:28.213Z,11.15
2023-02-24T09:57:30.228Z,11.44
2023-02-24T10:00:48.281Z,11.58
2023-02-24T10:04:32.206Z,11.68
2023-02-24T10:07:49.234Z,11.74
2023-02-24T10:10:53.002Z,11.89
2023-02-24T10:14:13.283Z,12.05
2023-02-24T10:17:21.091Z,12.31
2023-02-24T10:20:47.251Z,12.55
2023-02-24T10:24:10.283Z,12.55
2023-02-24T10:27:24.383Z,12.28
2023-02-24T10:31:03.301Z,12.09
2023-02-24T10:34:15.450Z,12.33
2023-02-24T10:37:28.948Z,12.45
2023-02-24T10:40:59.253Z,12.68
2023-02-24T10:44:12.251Z,12.80
2023-02-24T10:47:34.248Z,12.99
2023-02-24T10:50:56.069Z,13.06
2023-02-24T10:54:13.033Z,13.06
2023-02-24T11:01:27.406Z,13.33
2023-02-24T11:04:38.422Z,13.68
2023-02-24T11:07:47.307Z,13.94
2023-02-24T11:11:02.276Z,14.00
2023-02-24T11:14:11.273Z,14.25
2023-02-24T11:17:22.923Z,14.37
2023-02-24T11:20:51.243Z,14.59
2023-02-24T11:24:03.269Z,14.31
2023-02-24T11:27:12.930Z,14.21
2023-02-24T11:30:34.288Z,14.38
2023-02-24T11:34:10.352Z,14.61
2023-02-24T11:37:43.420Z,15.13
2023-02-24T11:41:14.261Z,14.88
2023-02-24T11:44:39.306Z,14.81
2023-02-24T11:47:53.306Z,15.06
2023-02-24T11:51:12.356Z,16.23
2023-02-24T11:54:22.298Z,21.16
2023-02-24T11:57:40.159Z,22.42
2023-02-24T12:01:00.310Z,21.36
2023-02-24T12:04:35.387Z,20.70
2023-02-24T12:07:41.432Z,22.64
2023-02-24T12:11:05.258Z,24.64
2023-02-24T12:14:26.286Z,24.95
2023-02-24T12:18:13.867Z,25.61
2023-02-24T12:21:32.301Z,24.46
2023-02-24T12:24:51.729Z,23.39
2023-02-24T12:28:21.339Z,25.02
2023-02-24T12:31:54.367Z,24.31
2023-02-24T12:35:23.429Z,20.97
2023-02-24T12:38:51.296Z,18.23
2023-02-24T12:42:31.293Z,17.83
2023-02-24T12:45:46.046Z,19.38
2023-02-24T12:49:20.314Z,18.95
2023-02-24T12:52:38.328Z,18.06
2023-02-24T12:56:10.195Z,17.04
2023-02-24T12:59:32.355Z,16.63
2023-02-24T13:03:00.307Z,16.79
2023-02-24T13:06:39.146Z,16.10
2023-02-24T13:10:11.356Z,16.02
2023-02-24T13:13:34.362Z,16.51
2023-02-24T13:16:42.970Z,16.43
2023-02-24T13:19:59.332Z,16.03
2023-02-24T13:23:04.364Z,15.62
2023-02-24T13:26:29.341Z,15.44
2023-02-24T13:30:02.349Z,15.14
2023-02-24T13:33:25.481Z,14.97
2023-02-24T13:36:34.339Z,14.72
2023-02-24T13:39:49.376Z,14.74
2023-02-24T13:43:00.731Z,14.55
2023-02-24T13:46:25.359Z,14.57
2023-02-24T13:50:08.360Z,14.58
2023-02-24T13:53:31.314Z,14.44
2023-02-24T13:57:16.347Z,14.57
2023-02-24T14:00:42.338Z,14.41
2023-02-24T14:04:10.384Z,14.51
2023-02-24T14:07:30.351Z,14.52
2023-02-24T14:10:34.270Z,14.57
2023-02-24T14:13:56.374Z,14.40
2023-02-24T14:17:11.430Z,14.47
2023-02-24T14:20:22.557Z,14.29
2023-02-24T14:23:40.368Z,14.25
2023-02-24T14:26:55.090Z,14.13
2023-02-24T14:30:05.392Z,14.17
2023-02-24T14:33:38.373Z,14.23
2023-02-24T14:36:44.470Z,14.11
2023-02-24T14:40:04.393Z,14.11
2023-02-24T14:43:21.422Z,13.98
2023-02-24T14:46:30.052Z,13.99
2023-02-24T14:49:41.374Z,13.97
2023-02-24T14:53:03.380Z,14.02
2023-02-24T14:56:19.649Z,14.04
2023-02-24T14:59:38.470Z,14.00
2023-02-24T15:02:58.442Z,14.06
2023-02-24T15:06:05.820Z,14.03
2023-02-24T15:09:27.401Z,13.97
2023-02-24T15:12:33.407Z,13.97
2023-02-24T15:15:48.591Z,13.96
2023-02-24T15:18:53.443Z,14.01
2023-02-24T15:22:09.394Z,13.94
2023-02-24T15:25:42.337Z,13.86
2023-02-24T15:28:58.333Z,13.77
2023-02-24T15:32:07.536Z,13.83
2023-02-24T15:35:23.923Z,13.82
2023-02-24T15:38:39.444Z,13.84
2023-02-24T15:41:55.374Z,13.86
2023-02-24T15:45:28.431Z,13.85
2023-02-24T15:48:42.650Z,13.82
2023-02-24T15:51:53.451Z,13.78
2023-02-24T15:55:09.399Z,13.68
2023-02-24T15:58:21.381Z,13.60
2023-02-24T16:01:38.453Z,13.55
2023-02-24T16:04:46.438Z,13.49
2023-02-24T16:07:55.081Z,13.40
2023-02-24T16:11:04.417Z,13.34
2023-02-24T16:14:18.024Z,13.26
2023-02-24T16:17:42.406Z,13.20
2023-02-24T16:20:58.577Z,13.12
2023-02-24T16:24:07.231Z,13.06
2023-02-24T16:27:25.451Z,13.02
2023-02-24T16:30:35.699Z,12.93
2023-02-24T16:33:54.920Z,12.87
2023-02-24T16:37:04.442Z,12.78
2023-02-24T16:40:25.285Z,12.66
2023-02-24T16:43:40.638Z,12.53
2023-02-24T16:46:49.981Z,12.51
2023-02-24T16:49:59.454Z,12.49
2023-02-24T16:53:17.500Z,12.49
2023-02-24T16:56:25.445Z,12.49
2023-02-24T16:59:40.477Z,12.53
2023-02-24T17:02:44.685Z,12.47
2023-02-24T17:05:59.412Z,12.43
2023-02-24T17:09:08.467Z,12.38
2023-02-24T17:12:21.878Z,12.28
2023-02-24T17:15:31.452Z,12.28
2023-02-24T17:18:46.478Z,12.25
2023-02-24T17:21:48.261Z,12.25
2023-02-24T17:25:03.475Z,12.21
2023-02-24T17:28:12.185Z,12.22
2023-02-24T17:31:20.569Z,12.21
2023-02-24T17:34:35.512Z,12.16
2023-02-24T17:37:44.078Z,12.17
2023-02-24T17:40:59.501Z,12.13
2023-02-24T17:44:07.806Z,12.09
2023-02-24T17:47:22.448Z,12.03
2023-02-24T17:50:34.536Z,12.07
2023-02-24T17:53:43.149Z,12.00
2023-02-24T17:56:51.596Z,12.01
2023-02-24T18:00:06.493Z,12.00
2023-02-24T18:03:16.617Z,11.97
2023-02-24T18:06:25.451Z,11.97
2023-02-24T18:09:33.486Z,12.04
2023-02-24T18:12:48.513Z,12.01
2023-02-24T18:15:50.604Z,12.10
2023-02-24T18:19:05.474Z,12.07
2023-02-24T18:22:20.513Z,11.99
2023-02-24T18:25:35.493Z,12.02
2023-02-24T18:28:50.516Z,11.98
2023-02-24T18:31:52.510Z,11.94
2023-02-24T18:35:07.485Z,11.94
2023-02-24T18:38:09.350Z,12.02
2023-02-24T18:41:27.508Z,12.03
2023-02-24T18:44:42.649Z,12.04
2023-02-24T18:47:52.084Z,12.00
2023-02-24T18:51:07.567Z,12.09
2023-02-24T18:54:10.668Z,12.06
2023-02-24T18:57:25.543Z,11.95
2023-02-24T19:00:34.155Z,11.93
2023-02-24T19:03:49.593Z,11.85
2023-02-24T19:07:00.528Z,11.82
2023-02-24T19:10:17.551Z,11.78
2023-02-24T19:13:26.502Z,11.70
2023-02-24T19:16:35.219Z,11.68
2023-02-24T19:19:43.540Z,11.65
2023-02-24T19:22:58.514Z,11.57
2023-02-24T19:26:06.530Z,11.55
2023-02-24T19:29:15.347Z,11.50
2023-02-24T19:32:30.701Z,11.42
2023-02-24T19:35:32.570Z,11.40
2023-02-24T19:38:47.550Z,11.38
2023-02-24T19:41:56.531Z,11.37
2023-02-24T19:45:19.563Z,11.36
2023-02-24T19:48:21.415Z,11.36
2023-02-24T19:51:38.524Z,11.31
2023-02-24T19:54:47.158Z,11.11
2023-02-24T19:58:01.546Z,11.24
2023-02-24T20:01:13.589Z,11.19
2023-02-24T20:04:29.687Z,11.11
2023-02-24T20:07:39.580Z,11.09
2023-02-24T20:11:00.119Z,11.05
2023-02-24T20:14:08.555Z,11.02
2023-02-24T20:17:17.221Z,11.04
2023-02-24T20:20:25.536Z,11.05
2023-02-24T20:23:40.613Z,11.03
2023-02-24T20:26:55.560Z,10.95
2023-02-24T20:30:04.762Z,11.00
2023-02-24T20:33:13.545Z,10.91
2023-02-24T20:36:25.361Z,10.87
2023-02-24T20:39:34.574Z,10.83
2023-02-24T20:42:56.738Z,10.81
2023-02-24T20:45:59.222Z,10.84
2023-02-24T20:49:16.569Z,10.79
2023-02-24T20:52:18.417Z,10.73
2023-02-24T20:55:33.673Z,10.74
2023-02-24T20:58:35.462Z,10.74
2023-02-24T21:01:52.618Z,10.71
2023-02-24T21:05:00.686Z,10.68
2023-02-24T21:08:16.704Z,10.63
2023-02-24T21:11:26.186Z,10.62
2023-02-24T21:14:34.563Z,10.57
2023-02-24T21:17:43.226Z,10.54
2023-02-24T21:20:51.573Z,10.52
2023-02-24T21:24:06.609Z,10.50
2023-02-24T21:27:14.602Z,10.48
2023-02-24T21:30:29.609Z,10.46
2023-02-24T21:33:31.521Z,10.43
2023-02-24T21:36:46.610Z,10.36
2023-02-24T21:39:54.570Z,10.35
2023-02-24T21:43:19.654Z,10.40
2023-02-24T21:46:34.592Z,10.41
2023-02-24T21:49:43.784Z,10.39
2023-02-24T21:52:52.578Z,10.33
2023-02-24T21:56:12.896Z,10.37
2023-02-24T21:59:27.602Z,10.36
2023-02-24T22:02:35.576Z,10.26
2023-02-24T22:05:47.614Z,10.27
2023-02-24T22:09:02.606Z,10.28
2023-02-24T22:12:12.664Z,10.19
2023-02-24T22:15:27.609Z,10.17
2023-02-24T22:18:44.568Z,10.08
2023-02-24T22:21:53.364Z,10.03
2023-02-24T22:25:01.626Z,9.98
2023-02-24T22:28:10.389Z,9.90
2023-02-24T22:31:22.698Z,9.80
2023-02-24T22:34:37.619Z,9.77
2023-02-24T22:37:39.454Z,9.77
2023-02-24T22:41:06.681Z,9.64
2023-02-24T22:44:14.917Z,9.58
2023-02-24T22:47:29.676Z,9.57
2023-02-24T22:50:45.584Z,9.57
2023-02-24T22:53:49.597Z,9.56
2023-02-24T22:57:04.640Z,9.60
2023-02-24T23:00:07.469Z,9.61
2023-02-24T23:03:27.658Z,9.59
2023-02-24T23:06:30.419Z,9.53
2023-02-24T23:09:45.644Z,9.51
2023-02-24T23:12:47.667Z,9.57
2023-02-24T23:16:06.627Z,9.52
2023-02-24T23:19:19.718Z,9.47
2023-02-24T23:22:28.518Z,9.44
2023-02-24T23:25:36.661Z,9.46
2023-02-24T23:28:51.634Z,9.48
2023-02-24T23:32:00.742Z,9.57
2023-02-24T23:35:10.879Z,9.54
2023-02-24T23:38:19.648Z,9.51
2023-02-24T23:41:28.789Z,9.41
2023-02-24T23:44:44.791Z,9.30
2023-02-24T23:47:59.661Z,9.12
2023-02-24T23:51:03.959Z,9.14
2023-02-24T23:54:20.018Z,9.17
2023-02-24T23:57:22.230Z,9.15
